sensor_id;sensor_type;location;lat;lon;timestamp;P1;durP1;ratioP1;P2;durP2;ratioP2
21827;SDS011;11076;47.942;11.804;2023-04-07T00:02:54;7.80;;;3.70;;
21827;SDS011;11076;47.942;11.804;2023-04-07T00:07:56;5.40;;;4.07;;
21827;SDS011;11076;47.942;11.804;2023-04-07T00:12:59;5.00;;;3.20;;
21827;SDS011;11076;47.942;11.804;2023-04-07T00:18:01;7.33;;;3.97;;
21827;SDS011;11076;47.942;11.804;2023-04-07T00:23:04;7.63;;;4.50;;
21827;SDS011;11076;47.942;11.804;2023-04-07T00:28:07;7.40;;;3.97;;
21827;SDS011;11076;47.942;11.804;2023-04-07T00:33:09;3.87;;;2.40;;
21827;SDS011;11076;47.942;11.804;2023-04-07T00:38:11;7.77;;;4.67;;
21827;SDS011;11076;47.942;11.804;2023-04-07T00:43:14;8.43;;;4.43;;
21827;SDS011;11076;47.942;11.804;2023-04-07T00:48:16;8.20;;;4.20;;
21827;SDS011;11076;47.942;11.804;2023-04-07T00:53:19;6.77;;;3.93;;
21827;SDS011;11076;47.942;11.804;2023-04-07T00:58:22;6.40;;;4.33;;
21827;SDS011;11076;47.942;11.804;2023-04-07T01:03:27;9.67;;;4.73;;
21827;SDS011;11076;47.942;11.804;2023-04-07T01:08:41;9.23;;;4.23;;
21827;SDS011;11076;47.942;11.804;2023-04-07T01:14:25;6.13;;;4.20;;
21827;SDS011;11076;47.942;11.804;2023-04-07T01:19:52;4.97;;;3.47;;
21827;SDS011;11076;47.942;11.804;2023-04-07T01:30:20;8.23;;;4.13;;
21827;SDS011;11076;47.942;11.804;2023-04-07T01:35:25;8.10;;;4.27;;
21827;SDS011;11076;47.942;11.804;2023-04-07T01:40:31;9.70;;;4.10;;
21827;SDS011;11076;47.942;11.804;2023-04-07T01:45:35;6.87;;;4.37;;
21827;SDS011;11076;47.942;11.804;2023-04-07T01:50:39;6.00;;;4.03;;
21827;SDS011;11076;47.942;11.804;2023-04-07T01:55:42;5.27;;;3.47;;
21827;SDS011;11076;47.942;11.804;2023-04-07T02:00:45;11.87;;;4.43;;
21827;SDS011;11076;47.942;11.804;2023-04-07T02:05:53;6.60;;;3.97;;
21827;SDS011;11076;47.942;11.804;2023-04-07T02:11:02;7.60;;;4.60;;
21827;SDS011;11076;47.942;11.804;2023-04-07T02:16:09;5.73;;;3.90;;
21827;SDS011;11076;47.942;11.804;2023-04-07T02:21:12;9.77;;;4.10;;
21827;SDS011;11076;47.942;11.804;2023-04-07T02:26:19;6.47;;;3.70;;
21827;SDS011;11076;47.942;11.804;2023-04-07T02:31:23;6.73;;;4.07;;
21827;SDS011;11076;47.942;11.804;2023-04-07T02:36:25;6.40;;;4.10;;
21827;SDS011;11076;47.942;11.804;2023-04-07T02:41:28;7.43;;;4.43;;
21827;SDS011;11076;47.942;11.804;2023-04-07T02:46:30;5.67;;;3.83;;
21827;SDS011;11076;47.942;11.804;2023-04-07T02:51:33;8.10;;;4.50;;
21827;SDS011;11076;47.942;11.804;2023-04-07T02:56:35;7.13;;;4.03;;
21827;SDS011;11076;47.942;11.804;2023-04-07T03:01:37;4.80;;;3.80;;
21827;SDS011;11076;47.942;11.804;2023-04-07T03:06:41;6.10;;;4.33;;
21827;SDS011;11076;47.942;11.804;2023-04-07T03:11:48;6.33;;;4.30;;
21827;SDS011;11076;47.942;11.804;2023-04-07T03:16:51;6.07;;;3.97;;
21827;SDS011;11076;47.942;11.804;2023-04-07T03:21:53;3.03;;;2.67;;
21827;SDS011;11076;47.942;11.804;2023-04-07T03:26:56;5.90;;;4.27;;
21827;SDS011;11076;47.942;11.804;2023-04-07T03:32:10;3.80;;;3.10;;
21827;SDS011;11076;47.942;11.804;2023-04-07T03:37:12;6.37;;;4.47;;
21827;SDS011;11076;47.942;11.804;2023-04-07T03:42:16;7.13;;;4.30;;
21827;SDS011;11076;47.942;11.804;2023-04-07T03:47:19;6.37;;;4.60;;
21827;SDS011;11076;47.942;11.804;2023-04-07T03:52:27;8.13;;;4.77;;
21827;SDS011;11076;47.942;11.804;2023-04-07T03:57:36;8.40;;;4.53;;
21827;SDS011;11076;47.942;11.804;2023-04-07T04:02:39;6.00;;;4.13;;
21827;SDS011;11076;47.942;11.804;2023-04-07T04:07:52;6.73;;;4.13;;
21827;SDS011;11076;47.942;11.804;2023-04-07T04:12:56;6.10;;;4.60;;
21827;SDS011;11076;47.942;11.804;2023-04-07T04:18:01;6.33;;;5.07;;
21827;SDS011;11076;47.942;11.804;2023-04-07T04:23:05;7.80;;;4.10;;
21827;SDS011;11076;47.942;11.804;2023-04-07T04:28:09;7.23;;;4.80;;
21827;SDS011;11076;47.942;11.804;2023-04-07T04:33:12;5.87;;;4.50;;
21827;SDS011;11076;47.942;11.804;2023-04-07T04:38:26;6.07;;;4.40;;
21827;SDS011;11076;47.942;11.804;2023-04-07T04:43:39;7.50;;;4.83;;
21827;SDS011;11076;47.942;11.804;2023-04-07T04:48:43;7.03;;;4.90;;
21827;SDS011;11076;47.942;11.804;2023-04-07T04:53:45;11.23;;;5.50;;
21827;SDS011;11076;47.942;11.804;2023-04-07T04:58:48;8.97;;;5.30;;
21827;SDS011;11076;47.942;11.804;2023-04-07T05:04:17;6.27;;;4.80;;
21827;SDS011;11076;47.942;11.804;2023-04-07T05:09:28;9.73;;;5.27;;
21827;SDS011;11076;47.942;11.804;2023-04-07T05:14:31;7.77;;;5.00;;
21827;SDS011;11076;47.942;11.804;2023-04-07T05:19:39;7.40;;;5.20;;
21827;SDS011;11076;47.942;11.804;2023-04-07T05:24:51;7.30;;;5.43;;
21827;SDS011;11076;47.942;11.804;2023-04-07T05:29:54;9.77;;;5.30;;
21827;SDS011;11076;47.942;11.804;2023-04-07T05:35:01;8.43;;;5.63;;
21827;SDS011;11076;47.942;11.804;2023-04-07T05:40:08;9.37;;;6.23;;
21827;SDS011;11076;47.942;11.804;2023-04-07T05:45:12;8.70;;;5.70;;
21827;SDS011;11076;47.942;11.804;2023-04-07T05:50:18;8.40;;;5.90;;
21827;SDS011;11076;47.942;11.804;2023-04-07T05:55:22;9.47;;;5.43;;
21827;SDS011;11076;47.942;11.804;2023-04-07T06:00:26;8.00;;;5.33;;
21827;SDS011;11076;47.942;11.804;2023-04-07T06:05:38;9.13;;;5.87;;
21827;SDS011;11076;47.942;11.804;2023-04-07T06:10:45;9.43;;;5.70;;
21827;SDS011;11076;47.942;11.804;2023-04-07T06:15:48;9.50;;;5.67;;
21827;SDS011;11076;47.942;11.804;2023-04-07T06:20:50;9.70;;;5.93;;
21827;SDS011;11076;47.942;11.804;2023-04-07T06:25:53;10.77;;;6.23;;
21827;SDS011;11076;47.942;11.804;2023-04-07T06:30:56;8.40;;;5.80;;
21827;SDS011;11076;47.942;11.804;2023-04-07T06:36:00;8.33;;;5.27;;
21827;SDS011;11076;47.942;11.804;2023-04-07T06:41:03;9.20;;;5.73;;
21827;SDS011;11076;47.942;11.804;2023-04-07T06:46:05;8.03;;;5.93;;
21827;SDS011;11076;47.942;11.804;2023-04-07T06:51:07;9.60;;;5.93;;
21827;SDS011;11076;47.942;11.804;2023-04-07T06:56:10;10.17;;;6.50;;
21827;SDS011;11076;47.942;11.804;2023-04-07T07:01:13;9.90;;;6.47;;
21827;SDS011;11076;47.942;11.804;2023-04-07T07:06:15;8.50;;;5.80;;
21827;SDS011;11076;47.942;11.804;2023-04-07T07:11:18;8.30;;;6.53;;
21827;SDS011;11076;47.942;11.804;2023-04-07T07:16:20;8.00;;;6.13;;
21827;SDS011;11076;47.942;11.804;2023-04-07T07:21:24;8.03;;;5.37;;
21827;SDS011;11076;47.942;11.804;2023-04-07T07:26:27;9.43;;;5.77;;
21827;SDS011;11076;47.942;11.804;2023-04-07T07:31:30;8.10;;;5.67;;
21827;SDS011;11076;47.942;11.804;2023-04-07T07:36:32;9.67;;;5.60;;
21827;SDS011;11076;47.942;11.804;2023-04-07T07:41:34;7.83;;;5.77;;
21827;SDS011;11076;47.942;11.804;2023-04-07T07:46:37;9.35;;;5.30;;
21827;SDS011;11076;47.942;11.804;2023-04-07T07:51:39;8.05;;;5.70;;
21827;SDS011;11076;47.942;11.804;2023-04-07T07:56:42;8.20;;;5.10;;
21827;SDS011;11076;47.942;11.804;2023-04-07T08:01:44;9.25;;;5.25;;
21827;SDS011;11076;47.942;11.804;2023-04-07T08:06:46;8.23;;;5.50;;
21827;SDS011;11076;47.942;11.804;2023-04-07T08:11:49;4.68;;;4.22;;
21827;SDS011;11076;47.942;11.804;2023-04-07T08:16:52;7.53;;;5.15;;
21827;SDS011;11076;47.942;11.804;2023-04-07T08:21:54;7.53;;;5.63;;
21827;SDS011;11076;47.942;11.804;2023-04-07T08:26:57;7.70;;;5.35;;
21827;SDS011;11076;47.942;11.804;2023-04-07T08:31:59;7.47;;;5.35;;
21827;SDS011;11076;47.942;11.804;2023-04-07T08:37:01;7.38;;;5.28;;
21827;SDS011;11076;47.942;11.804;2023-04-07T08:42:04;6.85;;;4.75;;
21827;SDS011;11076;47.942;11.804;2023-04-07T08:47:09;7.55;;;5.07;;
21827;SDS011;11076;47.942;11.804;2023-04-07T08:52:12;7.32;;;5.40;;
21827;SDS011;11076;47.942;11.804;2023-04-07T08:57:17;12.00;;;5.35;;
21827;SDS011;11076;47.942;11.804;2023-04-07T09:02:20;6.07;;;4.55;;
21827;SDS011;11076;47.942;11.804;2023-04-07T09:07:23;6.88;;;5.38;;
21827;SDS011;11076;47.942;11.804;2023-04-07T09:12:27;7.93;;;5.43;;
21827;SDS011;11076;47.942;11.804;2023-04-07T09:17:30;6.50;;;5.25;;
21827;SDS011;11076;47.942;11.804;2023-04-07T09:22:42;8.85;;;6.13;;
21827;SDS011;11076;47.942;11.804;2023-04-07T09:28:01;6.93;;;5.13;;
21827;SDS011;11076;47.942;11.804;2023-04-07T09:33:05;8.07;;;5.50;;
21827;SDS011;11076;47.942;11.804;2023-04-07T09:38:07;6.22;;;5.03;;
21827;SDS011;11076;47.942;11.804;2023-04-07T09:43:15;6.60;;;5.03;;
21827;SDS011;11076;47.942;11.804;2023-04-07T09:48:19;6.32;;;5.57;;
21827;SDS011;11076;47.942;11.804;2023-04-07T09:53:33;7.25;;;5.50;;
21827;SDS011;11076;47.942;11.804;2023-04-07T09:58:44;6.05;;;4.80;;
21827;SDS011;11076;47.942;11.804;2023-04-07T10:03:48;7.32;;;4.78;;
21827;SDS011;11076;47.942;11.804;2023-04-07T10:08:51;5.85;;;5.03;;
21827;SDS011;11076;47.942;11.804;2023-04-07T10:13:54;7.85;;;4.90;;
21827;SDS011;11076;47.942;11.804;2023-04-07T10:18:57;9.02;;;5.03;;
21827;SDS011;11076;47.942;11.804;2023-04-07T10:29:35;6.40;;;4.60;;
21827;SDS011;11076;47.942;11.804;2023-04-07T10:45:51;7.43;;;4.50;;
21827;SDS011;11076;47.942;11.804;2023-04-07T10:56:09;6.35;;;4.95;;
21827;SDS011;11076;47.942;11.804;2023-04-07T11:06:14;7.13;;;5.00;;
21827;SDS011;11076;47.942;11.804;2023-04-07T11:11:33;7.18;;;4.78;;
21827;SDS011;11076;47.942;11.804;2023-04-07T11:16:40;7.32;;;5.03;;
21827;SDS011;11076;47.942;11.804;2023-04-07T11:21:44;5.55;;;4.65;;
21827;SDS011;11076;47.942;11.804;2023-04-07T11:26:47;6.10;;;4.72;;
21827;SDS011;11076;47.942;11.804;2023-04-07T11:31:50;6.30;;;4.38;;
21827;SDS011;11076;47.942;11.804;2023-04-07T11:36:53;5.93;;;4.05;;
21827;SDS011;11076;47.942;11.804;2023-04-07T11:42:00;5.65;;;4.05;;
21827;SDS011;11076;47.942;11.804;2023-04-07T11:47:02;4.85;;;3.90;;
21827;SDS011;11076;47.942;11.804;2023-04-07T11:52:06;6.32;;;4.30;;
21827;SDS011;11076;47.942;11.804;2023-04-07T11:57:08;6.00;;;4.45;;
21827;SDS011;11076;47.942;11.804;2023-04-07T12:02:29;7.13;;;4.00;;
21827;SDS011;11076;47.942;11.804;2023-04-07T12:07:33;7.55;;;4.10;;
21827;SDS011;11076;47.942;11.804;2023-04-07T12:12:35;6.38;;;4.57;;
21827;SDS011;11076;47.942;11.804;2023-04-07T12:17:42;7.55;;;4.55;;
21827;SDS011;11076;47.942;11.804;2023-04-07T12:22:46;5.38;;;4.15;;
21827;SDS011;11076;47.942;11.804;2023-04-07T12:27:50;7.57;;;4.22;;
21827;SDS011;11076;47.942;11.804;2023-04-07T12:32:53;4.63;;;4.18;;
21827;SDS011;11076;47.942;11.804;2023-04-07T12:37:55;5.28;;;4.03;;
21827;SDS011;11076;47.942;11.804;2023-04-07T12:42:58;5.15;;;3.70;;
21827;SDS011;11076;47.942;11.804;2023-04-07T12:48:01;5.63;;;3.88;;
21827;SDS011;11076;47.942;11.804;2023-04-07T12:53:03;5.40;;;3.92;;
21827;SDS011;11076;47.942;11.804;2023-04-07T12:58:06;6.20;;;4.25;;
21827;SDS011;11076;47.942;11.804;2023-04-07T13:03:10;5.05;;;3.90;;
21827;SDS011;11076;47.942;11.804;2023-04-07T13:08:12;7.90;;;3.42;;
21827;SDS011;11076;47.942;11.804;2023-04-07T13:13:15;4.45;;;3.65;;
21827;SDS011;11076;47.942;11.804;2023-04-07T13:18:17;5.03;;;3.33;;
21827;SDS011;11076;47.942;11.804;2023-04-07T13:23:20;4.43;;;3.78;;
21827;SDS011;11076;47.942;11.804;2023-04-07T13:28:22;7.10;;;3.13;;
21827;SDS011;11076;47.942;11.804;2023-04-07T13:33:25;5.15;;;3.50;;
21827;SDS011;11076;47.942;11.804;2023-04-07T13:38:27;4.13;;;3.47;;
21827;SDS011;11076;47.942;11.804;2023-04-07T13:43:29;6.40;;;3.60;;
21827;SDS011;11076;47.942;11.804;2023-04-07T13:48:32;6.47;;;3.33;;
21827;SDS011;11076;47.942;11.804;2023-04-07T13:53:34;4.30;;;2.92;;
21827;SDS011;11076;47.942;11.804;2023-04-07T13:58:37;7.05;;;4.60;;
21827;SDS011;11076;47.942;11.804;2023-04-07T14:03:39;4.10;;;3.10;;
21827;SDS011;11076;47.942;11.804;2023-04-07T14:08:42;3.85;;;3.22;;
21827;SDS011;11076;47.942;11.804;2023-04-07T14:13:45;4.70;;;3.13;;
21827;SDS011;11076;47.942;11.804;2023-04-07T14:18:48;4.13;;;3.05;;
21827;SDS011;11076;47.942;11.804;2023-04-07T14:23:52;3.33;;;2.88;;
21827;SDS011;11076;47.942;11.804;2023-04-07T14:28:55;4.18;;;2.95;;
21827;SDS011;11076;47.942;11.804;2023-04-07T14:33:58;3.58;;;3.25;;
21827;SDS011;11076;47.942;11.804;2023-04-07T14:39:01;11.27;;;4.63;;
21827;SDS011;11076;47.942;11.804;2023-04-07T14:44:04;7.57;;;5.10;;
21827;SDS011;11076;47.942;11.804;2023-04-07T14:49:07;5.25;;;4.47;;
21827;SDS011;11076;47.942;11.804;2023-04-07T14:54:10;4.93;;;4.47;;
21827;SDS011;11076;47.942;11.804;2023-04-07T14:59:13;7.03;;;5.18;;
21827;SDS011;11076;47.942;11.804;2023-04-07T15:04:18;5.97;;;4.72;;
21827;SDS011;11076;47.942;11.804;2023-04-07T15:09:21;5.93;;;5.10;;
21827;SDS011;11076;47.942;11.804;2023-04-07T15:14:23;7.35;;;6.18;;
21827;SDS011;11076;47.942;11.804;2023-04-07T15:19:26;7.90;;;4.65;;
21827;SDS011;11076;47.942;11.804;2023-04-07T15:24:29;8.95;;;5.65;;
21827;SDS011;11076;47.942;11.804;2023-04-07T15:29:31;16.70;;;7.13;;
21827;SDS011;11076;47.942;11.804;2023-04-07T15:34:33;10.40;;;6.22;;
21827;SDS011;11076;47.942;11.804;2023-04-07T15:39:36;12.07;;;6.03;;
21827;SDS011;11076;47.942;11.804;2023-04-07T15:44:39;15.13;;;7.30;;
21827;SDS011;11076;47.942;11.804;2023-04-07T15:49:42;8.57;;;6.22;;
21827;SDS011;11076;47.942;11.804;2023-04-07T15:54:44;9.18;;;5.90;;
21827;SDS011;11076;47.942;11.804;2023-04-07T15:59:47;7.40;;;5.70;;
21827;SDS011;11076;47.942;11.804;2023-04-07T16:04:49;8.48;;;6.32;;
21827;SDS011;11076;47.942;11.804;2023-04-07T16:09:52;7.68;;;5.50;;
21827;SDS011;11076;47.942;11.804;2023-04-07T16:14:54;6.25;;;5.57;;
21827;SDS011;11076;47.942;11.804;2023-04-07T16:19:57;7.90;;;5.93;;
21827;SDS011;11076;47.942;11.804;2023-04-07T16:24:59;7.28;;;5.43;;
21827;SDS011;11076;47.942;11.804;2023-04-07T16:30:05;7.38;;;5.88;;
21827;SDS011;11076;47.942;11.804;2023-04-07T16:35:09;10.40;;;6.72;;
21827;SDS011;11076;47.942;11.804;2023-04-07T16:40:12;8.52;;;5.35;;
21827;SDS011;11076;47.942;11.804;2023-04-07T16:45:15;12.23;;;6.95;;
21827;SDS011;11076;47.942;11.804;2023-04-07T16:50:17;15.73;;;8.98;;
21827;SDS011;11076;47.942;11.804;2023-04-07T16:55:19;8.88;;;5.75;;
21827;SDS011;11076;47.942;11.804;2023-04-07T17:00:22;15.70;;;10.00;;
21827;SDS011;11076;47.942;11.804;2023-04-07T17:05:24;7.13;;;5.47;;
21827;SDS011;11076;47.942;11.804;2023-04-07T17:10:27;7.88;;;5.25;;
21827;SDS011;11076;47.942;11.804;2023-04-07T17:15:29;9.82;;;6.28;;
21827;SDS011;11076;47.942;11.804;2023-04-07T17:20:32;7.95;;;5.47;;
21827;SDS011;11076;47.942;11.804;2023-04-07T17:25:35;8.45;;;5.50;;
21827;SDS011;11076;47.942;11.804;2023-04-07T17:30:37;9.50;;;5.65;;
21827;SDS011;11076;47.942;11.804;2023-04-07T17:35:40;7.25;;;5.47;;
21827;SDS011;11076;47.942;11.804;2023-04-07T17:40:42;8.27;;;5.50;;
21827;SDS011;11076;47.942;11.804;2023-04-07T17:45:45;8.05;;;4.93;;
21827;SDS011;11076;47.942;11.804;2023-04-07T17:50:48;7.32;;;4.63;;
21827;SDS011;11076;47.942;11.804;2023-04-07T17:55:50;5.57;;;4.55;;
21827;SDS011;11076;47.942;11.804;2023-04-07T18:00:53;8.88;;;5.45;;
21827;SDS011;11076;47.942;11.804;2023-04-07T18:05:55;7.20;;;5.57;;
21827;SDS011;11076;47.942;11.804;2023-04-07T18:10:58;7.97;;;5.90;;
21827;SDS011;11076;47.942;11.804;2023-04-07T18:16:01;11.50;;;6.25;;
21827;SDS011;11076;47.942;11.804;2023-04-07T18:21:04;8.05;;;5.35;;
21827;SDS011;11076;47.942;11.804;2023-04-07T18:26:07;10.45;;;5.63;;
21827;SDS011;11076;47.942;11.804;2023-04-07T18:31:09;9.15;;;5.88;;
21827;SDS011;11076;47.942;11.804;2023-04-07T18:36:13;10.30;;;6.47;;
21827;SDS011;11076;47.942;11.804;2023-04-07T18:41:15;11.60;;;7.23;;
21827;SDS011;11076;47.942;11.804;2023-04-07T18:46:18;10.73;;;6.40;;
21827;SDS011;11076;47.942;11.804;2023-04-07T18:51:20;12.47;;;8.23;;
21827;SDS011;11076;47.942;11.804;2023-04-07T18:56:23;11.63;;;6.70;;
21827;SDS011;11076;47.942;11.804;2023-04-07T19:01:28;10.37;;;6.40;;
21827;SDS011;11076;47.942;11.804;2023-04-07T19:06:30;12.07;;;7.03;;
21827;SDS011;11076;47.942;11.804;2023-04-07T19:11:33;10.43;;;7.03;;
21827;SDS011;11076;47.942;11.804;2023-04-07T19:16:36;10.07;;;7.40;;
21827;SDS011;11076;47.942;11.804;2023-04-07T19:21:39;9.37;;;6.50;;
21827;SDS011;11076;47.942;11.804;2023-04-07T19:26:42;10.70;;;7.37;;
21827;SDS011;11076;47.942;11.804;2023-04-07T19:31:44;10.20;;;6.80;;
21827;SDS011;11076;47.942;11.804;2023-04-07T19:36:47;10.60;;;7.73;;
21827;SDS011;11076;47.942;11.804;2023-04-07T19:41:49;11.23;;;7.37;;
21827;SDS011;11076;47.942;11.804;2023-04-07T19:46:51;8.77;;;7.27;;
21827;SDS011;11076;47.942;11.804;2023-04-07T19:51:54;12.43;;;7.93;;
21827;SDS011;11076;47.942;11.804;2023-04-07T19:56:57;10.83;;;7.57;;
21827;SDS011;11076;47.942;11.804;2023-04-07T20:01:59;11.77;;;7.90;;
21827;SDS011;11076;47.942;11.804;2023-04-07T20:07:02;11.50;;;7.47;;
21827;SDS011;11076;47.942;11.804;2023-04-07T20:12:05;11.27;;;7.57;;
21827;SDS011;11076;47.942;11.804;2023-04-07T20:17:07;15.10;;;8.27;;
21827;SDS011;11076;47.942;11.804;2023-04-07T20:22:10;9.60;;;6.90;;
21827;SDS011;11076;47.942;11.804;2023-04-07T20:27:12;11.60;;;7.63;;
21827;SDS011;11076;47.942;11.804;2023-04-07T20:32:14;14.00;;;9.10;;
21827;SDS011;11076;47.942;11.804;2023-04-07T20:37:17;11.03;;;7.83;;
21827;SDS011;11076;47.942;11.804;2023-04-07T20:42:20;10.40;;;7.90;;
21827;SDS011;11076;47.942;11.804;2023-04-07T20:47:23;9.87;;;7.90;;
21827;SDS011;11076;47.942;11.804;2023-04-07T20:52:25;12.27;;;8.53;;
21827;SDS011;11076;47.942;11.804;2023-04-07T20:57:28;12.73;;;8.90;;
21827;SDS011;11076;47.942;11.804;2023-04-07T21:02:31;12.33;;;8.50;;
21827;SDS011;11076;47.942;11.804;2023-04-07T21:07:35;12.60;;;7.80;;
21827;SDS011;11076;47.942;11.804;2023-04-07T21:12:37;11.37;;;7.90;;
21827;SDS011;11076;47.942;11.804;2023-04-07T21:17:40;10.33;;;7.67;;
21827;SDS011;11076;47.942;11.804;2023-04-07T21:22:43;11.57;;;7.77;;
21827;SDS011;11076;47.942;11.804;2023-04-07T21:27:45;10.60;;;7.17;;
21827;SDS011;11076;47.942;11.804;2023-04-07T21:32:47;12.77;;;8.13;;
21827;SDS011;11076;47.942;11.804;2023-04-07T21:37:50;11.23;;;7.63;;
21827;SDS011;11076;47.942;11.804;2023-04-07T21:42:52;9.63;;;7.70;;
21827;SDS011;11076;47.942;11.804;2023-04-07T21:47:54;13.40;;;8.23;;
21827;SDS011;11076;47.942;11.804;2023-04-07T21:52:57;25.33;;;13.87;;
21827;SDS011;11076;47.942;11.804;2023-04-07T21:58:00;13.77;;;9.07;;
21827;SDS011;11076;47.942;11.804;2023-04-07T22:03:02;10.43;;;7.83;;
21827;SDS011;11076;47.942;11.804;2023-04-07T22:08:08;14.27;;;7.50;;
21827;SDS011;11076;47.942;11.804;2023-04-07T22:13:10;9.73;;;7.10;;
21827;SDS011;11076;47.942;11.804;2023-04-07T22:18:13;12.83;;;8.17;;
21827;SDS011;11076;47.942;11.804;2023-04-07T22:23:15;14.43;;;8.27;;
21827;SDS011;11076;47.942;11.804;2023-04-07T22:28:18;13.73;;;7.83;;
21827;SDS011;11076;47.942;11.804;2023-04-07T22:33:20;12.10;;;8.00;;
21827;SDS011;11076;47.942;11.804;2023-04-07T22:38:22;13.43;;;8.33;;
21827;SDS011;11076;47.942;11.804;2023-04-07T22:43:25;9.90;;;7.70;;
21827;SDS011;11076;47.942;11.804;2023-04-07T22:48:27;11.23;;;7.47;;
21827;SDS011;11076;47.942;11.804;2023-04-07T22:53:30;16.03;;;8.03;;
21827;SDS011;11076;47.942;11.804;2023-04-07T22:58:32;10.37;;;6.43;;
21827;SDS011;11076;47.942;11.804;2023-04-07T23:03:35;9.50;;;6.57;;
21827;SDS011;11076;47.942;11.804;2023-04-07T23:08:37;9.80;;;6.67;;
21827;SDS011;11076;47.942;11.804;2023-04-07T23:13:40;9.03;;;6.30;;
21827;SDS011;11076;47.942;11.804;2023-04-07T23:18:43;7.83;;;6.03;;
21827;SDS011;11076;47.942;11.804;2023-04-07T23:23:45;10.90;;;6.13;;
21827;SDS011;11076;47.942;11.804;2023-04-07T23:28:47;8.53;;;5.83;;
21827;SDS011;11076;47.942;11.804;2023-04-07T23:33:50;10.27;;;5.43;;
21827;SDS011;11076;47.942;11.804;2023-04-07T23:38:55;7.20;;;4.13;;
21827;SDS011;11076;47.942;11.804;2023-04-07T23:43:58;4.37;;;3.43;;
21827;SDS011;11076;47.942;11.804;2023-04-07T23:49:00;12.63;;;6.03;;
21827;SDS011;11076;47.942;11.804;2023-04-07T23:54:03;9.40;;;7.13;;
21827;SDS011;11076;47.942;11.804;2023-04-07T23:59:06;9.63;;;5.97;;
